sensor_id;sensor_type;location;lat;lon;timestamp;P1;durP1;ratioP1;P2;durP2;ratioP2
15151;SDS011;7676;50.900;6.234;2023-05-23T00:11:23;13.27;;;11.87;;
15151;SDS011;7676;50.900;6.234;2023-05-23T00:26:28;13.07;;;11.77;;
15151;SDS011;7676;50.900;6.234;2023-05-23T00:41:31;14.97;;;12.87;;
15151;SDS011;7676;50.900;6.234;2023-05-23T00:56:34;17.87;;;15.43;;
15151;SDS011;7676;50.900;6.234;2023-05-23T01:42:09;15.90;;;14.20;;
15151;SDS011;7676;50.900;6.234;2023-05-23T01:57:12;13.20;;;11.83;;
15151;SDS011;7676;50.900;6.234;2023-05-23T02:12:14;13.27;;;11.53;;
15151;SDS011;7676;50.900;6.234;2023-05-23T02:27:17;19.50;;;17.37;;
15151;SDS011;7676;50.900;6.234;2023-05-23T02:42:20;19.10;;;17.07;;
15151;SDS011;7676;50.900;6.234;2023-05-23T02:57:23;17.63;;;14.97;;
15151;SDS011;7676;50.900;6.234;2023-05-23T03:12:26;14.00;;;12.43;;
15151;SDS011;7676;50.900;6.234;2023-05-23T03:27:30;11.70;;;10.60;;
15151;SDS011;7676;50.900;6.234;2023-05-23T03:42:33;16.70;;;14.67;;
15151;SDS011;7676;50.900;6.234;2023-05-23T03:57:36;16.23;;;14.47;;
15151;SDS011;7676;50.900;6.234;2023-05-23T04:12:38;13.97;;;12.27;;
15151;SDS011;7676;50.900;6.234;2023-05-23T04:27:47;12.53;;;10.40;;
15151;SDS011;7676;50.900;6.234;2023-05-23T04:42:49;12.10;;;8.97;;
15151;SDS011;7676;50.900;6.234;2023-05-23T04:58:03;11.17;;;9.50;;
15151;SDS011;7676;50.900;6.234;2023-05-23T05:13:06;11.83;;;9.27;;
15151;SDS011;7676;50.900;6.234;2023-05-23T05:28:17;12.83;;;10.80;;
15151;SDS011;7676;50.900;6.234;2023-05-23T05:43:26;14.67;;;11.47;;
15151;SDS011;7676;50.900;6.234;2023-05-23T05:58:29;13.73;;;10.93;;
15151;SDS011;7676;50.900;6.234;2023-05-23T06:13:35;10.37;;;8.33;;
15151;SDS011;7676;50.900;6.234;2023-05-23T06:28:38;7.57;;;6.63;;
15151;SDS011;7676;50.900;6.234;2023-05-23T06:43:41;8.83;;;7.23;;
15151;SDS011;7676;50.900;6.234;2023-05-23T06:58:57;9.60;;;7.33;;
15151;SDS011;7676;50.900;6.234;2023-05-23T07:14:00;10.10;;;7.63;;
15151;SDS011;7676;50.900;6.234;2023-05-23T07:29:18;9.27;;;6.90;;
15151;SDS011;7676;50.900;6.234;2023-05-23T07:44:22;9.83;;;7.90;;
15151;SDS011;7676;50.900;6.234;2023-05-23T07:59:27;8.60;;;7.70;;
15151;SDS011;7676;50.900;6.234;2023-05-23T08:14:32;12.33;;;8.70;;
15151;SDS011;7676;50.900;6.234;2023-05-23T08:30:05;14.70;;;8.90;;
15151;SDS011;7676;50.900;6.234;2023-05-23T08:45:10;17.07;;;9.30;;
15151;SDS011;7676;50.900;6.234;2023-05-23T09:00:13;13.73;;;8.17;;
15151;SDS011;7676;50.900;6.234;2023-05-23T09:15:17;14.97;;;8.40;;
15151;SDS011;7676;50.900;6.234;2023-05-23T09:30:20;10.73;;;8.27;;
15151;SDS011;7676;50.900;6.234;2023-05-23T09:45:28;11.57;;;7.40;;
15151;SDS011;7676;50.900;6.234;2023-05-23T10:00:34;11.67;;;7.30;;
15151;SDS011;7676;50.900;6.234;2023-05-23T10:15:38;9.37;;;6.97;;
15151;SDS011;7676;50.900;6.234;2023-05-23T10:30:43;10.87;;;6.63;;
15151;SDS011;7676;50.900;6.234;2023-05-23T10:45:47;8.70;;;6.10;;
15151;SDS011;7676;50.900;6.234;2023-05-23T11:00:55;9.63;;;6.70;;
15151;SDS011;7676;50.900;6.234;2023-05-23T11:16:22;9.20;;;5.63;;
15151;SDS011;7676;50.900;6.234;2023-05-23T11:31:36;10.50;;;6.17;;
15151;SDS011;7676;50.900;6.234;2023-05-23T11:46:48;8.30;;;5.77;;
15151;SDS011;7676;50.900;6.234;2023-05-23T12:02:04;8.03;;;5.00;;
15151;SDS011;7676;50.900;6.234;2023-05-23T12:17:08;8.87;;;4.90;;
15151;SDS011;7676;50.900;6.234;2023-05-23T12:32:12;6.03;;;3.67;;
15151;SDS011;7676;50.900;6.234;2023-05-23T12:47:14;7.10;;;3.77;;
15151;SDS011;7676;50.900;6.234;2023-05-23T13:02:17;6.20;;;3.37;;
15151;SDS011;7676;50.900;6.234;2023-05-23T13:17:20;8.00;;;3.97;;
15151;SDS011;7676;50.900;6.234;2023-05-23T13:32:23;8.80;;;3.70;;
15151;SDS011;7676;50.900;6.234;2023-05-23T13:47:27;9.57;;;4.00;;
15151;SDS011;7676;50.900;6.234;2023-05-23T14:02:30;7.20;;;3.87;;
15151;SDS011;7676;50.900;6.234;2023-05-23T14:17:33;8.97;;;3.80;;
15151;SDS011;7676;50.900;6.234;2023-05-23T14:32:35;8.90;;;3.63;;
15151;SDS011;7676;50.900;6.234;2023-05-23T14:47:42;7.60;;;3.50;;
15151;SDS011;7676;50.900;6.234;2023-05-23T15:02:44;9.93;;;3.57;;
15151;SDS011;7676;50.900;6.234;2023-05-23T15:17:48;7.30;;;3.67;;
15151;SDS011;7676;50.900;6.234;2023-05-23T15:32:52;8.93;;;3.93;;
15151;SDS011;7676;50.900;6.234;2023-05-23T15:47:59;7.10;;;3.10;;
15151;SDS011;7676;50.900;6.234;2023-05-23T16:03:02;7.90;;;3.50;;
15151;SDS011;7676;50.900;6.234;2023-05-23T16:18:04;9.40;;;3.70;;
15151;SDS011;7676;50.900;6.234;2023-05-23T16:33:07;7.90;;;3.00;;
15151;SDS011;7676;50.900;6.234;2023-05-23T16:48:09;9.60;;;3.07;;
15151;SDS011;7676;50.900;6.234;2023-05-23T17:03:12;8.07;;;3.17;;
15151;SDS011;7676;50.900;6.234;2023-05-23T17:18:15;7.70;;;2.90;;
15151;SDS011;7676;50.900;6.234;2023-05-23T17:33:18;8.53;;;2.63;;
15151;SDS011;7676;50.900;6.234;2023-05-23T17:48:21;7.17;;;2.83;;
15151;SDS011;7676;50.900;6.234;2023-05-23T18:03:44;7.23;;;3.30;;
15151;SDS011;7676;50.900;6.234;2023-05-23T18:18:47;7.73;;;2.77;;
15151;SDS011;7676;50.900;6.234;2023-05-23T19:59:19;9.20;;;2.90;;
15151;SDS011;7676;50.900;6.234;2023-05-23T20:14:22;7.83;;;3.97;;
15151;SDS011;7676;50.900;6.234;2023-05-23T20:45:04;9.30;;;2.83;;
